Saint Paul Island, Canada
Current Conditions -  °F | °C
As of 6:00 PM on Wednesday 22 Oct 2014 (Local Time) from CWZB Reporting Station
Clear Clear  
Wind Chill: 40°   Ceiling: Unl
Heat Index: 44°   Visibility: 9mi
Dew Point: 37°   Wind: 7mph
Humidity: 77%   Direction: 50°NE
Pressure: 30.46"   Gusts: NA
Location:  47.21°N, 60.14°W
Report Text: CWZB 222100Z AUTO 05006KT 9SM NSC 06/03 A3046 RMK SLP314 T00650027 WSI/SWOB
Loading
Personal Weather Stations






























Interactive Weather Map
Tropical Storm Tracking
New forecast layout! Learn more

10-Day Weather Forecast

Advertisements
Track Severe Weather on mobile